createdAt,value
2018-12-18T00:01:54.170Z,10.10
2018-12-18T00:04:22.512Z,11.13
2018-12-18T00:06:51.090Z,12.23
2018-12-18T00:09:19.630Z,13.03
2018-12-18T00:11:47.944Z,13.40
2018-12-18T00:14:16.200Z,13.73
2018-12-18T00:16:44.958Z,14.00
2018-12-18T00:19:13.234Z,14.67
2018-12-18T00:21:41.482Z,14.30
2018-12-18T00:24:10.098Z,15.30
2018-12-18T00:26:38.767Z,16.33
2018-12-18T00:29:07.119Z,15.43
2018-12-18T00:31:36.153Z,15.60
2018-12-18T00:34:04.563Z,17.27
2018-12-18T00:36:32.836Z,16.63
2018-12-18T00:39:01.298Z,17.17
2018-12-18T00:41:29.566Z,17.93
2018-12-18T00:43:57.821Z,17.87
2018-12-18T00:46:26.333Z,17.73
2018-12-18T00:48:54.597Z,17.73
2018-12-18T00:51:22.859Z,16.93
2018-12-18T00:53:51.207Z,17.90
2018-12-18T00:56:19.488Z,17.20
2018-12-18T00:58:47.749Z,18.43
2018-12-18T01:01:16.259Z,18.93
2018-12-18T01:03:44.514Z,18.90
2018-12-18T01:06:12.793Z,17.87
2018-12-18T01:08:41.241Z,17.47
2018-12-18T01:11:09.505Z,17.83
2018-12-18T01:13:37.847Z,17.90
2018-12-18T01:16:06.345Z,17.97
2018-12-18T01:18:35.500Z,17.33
2018-12-18T01:21:03.992Z,17.67
2018-12-18T01:23:32.673Z,17.63
2018-12-18T01:26:01.026Z,16.13
2018-12-18T01:28:29.294Z,17.37
2018-12-18T01:30:57.770Z,17.13
2018-12-18T01:33:26.050Z,17.87
2018-12-18T01:35:54.332Z,16.33
2018-12-18T01:38:22.895Z,16.13
2018-12-18T01:40:51.249Z,16.80
2018-12-18T01:43:19.527Z,17.13
2018-12-18T01:45:47.914Z,16.00
2018-12-18T01:48:16.197Z,16.43
2018-12-18T01:50:44.456Z,15.67
2018-12-18T01:53:12.955Z,15.40
2018-12-18T01:55:41.207Z,15.70
2018-12-18T01:58:09.476Z,15.20
2018-12-18T02:00:38.007Z,15.03
2018-12-18T02:03:06.400Z,14.67
2018-12-18T02:05:34.647Z,14.87
2018-12-18T02:08:03.426Z,14.17
2018-12-18T02:10:31.692Z,14.73
2018-12-18T02:12:59.964Z,14.97
2018-12-18T02:15:28.735Z,15.80
2018-12-18T02:17:57.162Z,14.73
2018-12-18T02:20:25.498Z,14.77
2018-12-18T02:22:54.170Z,14.17
2018-12-18T02:25:22.444Z,14.83
2018-12-18T02:27:50.777Z,14.20
2018-12-18T02:30:19.356Z,13.27
2018-12-18T02:32:47.642Z,14.93
2018-12-18T02:35:16.065Z,14.37
2018-12-18T02:37:44.580Z,13.27
2018-12-18T02:40:12.957Z,13.80
2018-12-18T02:42:41.333Z,13.37
2018-12-18T02:45:10.054Z,13.00
2018-12-18T02:47:38.330Z,13.47
2018-12-18T02:50:07.041Z,13.13
2018-12-18T02:52:35.531Z,12.00
2018-12-18T02:55:04.051Z,12.37
2018-12-18T02:57:32.337Z,11.57
2018-12-18T03:00:00.909Z,13.00
2018-12-18T03:02:29.135Z,12.80
2018-12-18T03:04:57.392Z,13.13
2018-12-18T03:07:26.005Z,12.30
2018-12-18T03:09:54.285Z,13.63
2018-12-18T03:12:22.554Z,12.50
2018-12-18T03:14:50.964Z,13.33
2018-12-18T03:17:19.271Z,11.80
2018-12-18T03:19:47.557Z,13.17
2018-12-18T03:22:16.117Z,13.30
2018-12-18T03:24:44.395Z,12.43
2018-12-18T03:27:12.689Z,13.50
2018-12-18T03:29:41.143Z,12.10
2018-12-18T03:32:13.481Z,12.70
2018-12-18T03:34:41.758Z,13.03
2018-12-18T03:37:10.229Z,12.90
2018-12-18T03:39:38.545Z,12.60
2018-12-18T03:42:06.968Z,11.60
2018-12-18T03:44:35.473Z,13.23
2018-12-18T03:47:03.863Z,13.37
2018-12-18T03:49:32.138Z,13.77
2018-12-18T03:52:00.667Z,10.93
2018-12-18T03:54:29.077Z,12.70
2018-12-18T03:56:57.328Z,13.30
2018-12-18T03:59:25.892Z,12.00
2018-12-18T04:01:54.166Z,12.83
2018-12-18T04:04:22.434Z,12.70
2018-12-18T04:06:50.928Z,12.23
2018-12-18T04:09:19.198Z,12.73
2018-12-18T04:11:52.999Z,12.87
2018-12-18T04:14:21.268Z,11.80
2018-12-18T04:16:49.543Z,12.27
2018-12-18T04:19:18.098Z,13.07
2018-12-18T04:21:46.462Z,12.97
2018-12-18T04:24:15.023Z,12.00
2018-12-18T04:26:43.479Z,13.90
2018-12-18T04:29:11.811Z,12.77
2018-12-18T04:31:40.087Z,13.63
2018-12-18T04:34:08.709Z,13.20
2018-12-18T04:36:37.000Z,13.13
2018-12-18T04:39:06.659Z,13.67
2018-12-18T04:41:35.390Z,13.77
2018-12-18T04:44:03.670Z,14.17
2018-12-18T04:46:31.943Z,14.83
2018-12-18T04:49:00.417Z,13.10
2018-12-18T04:51:28.690Z,13.40
2018-12-18T04:53:56.988Z,13.53
2018-12-18T04:56:25.462Z,13.43
2018-12-18T04:58:53.784Z,13.27
2018-12-18T05:01:22.073Z,12.73
2018-12-18T05:03:50.696Z,12.43
2018-12-18T05:06:18.954Z,12.23
2018-12-18T05:08:47.203Z,13.23
2018-12-18T05:11:15.726Z,12.63
2018-12-18T05:13:44.022Z,13.73
2018-12-18T05:16:12.296Z,13.00
2018-12-18T05:18:40.788Z,13.20
2018-12-18T05:21:09.042Z,12.67
2018-12-18T05:23:37.330Z,13.00
2018-12-18T05:26:06.054Z,13.87
2018-12-18T05:28:34.315Z,14.70
2018-12-18T05:31:02.670Z,13.53
2018-12-18T05:33:31.228Z,13.77
2018-12-18T05:35:59.505Z,12.90
2018-12-18T05:38:28.009Z,12.53
2018-12-18T05:40:56.463Z,12.30
2018-12-18T05:43:24.709Z,13.83
2018-12-18T05:45:52.993Z,11.57
2018-12-18T05:48:21.509Z,12.13
2018-12-18T05:50:49.842Z,12.73
2018-12-18T05:53:18.103Z,11.83
2018-12-18T05:55:46.557Z,12.67
2018-12-18T05:58:14.827Z,12.80
2018-12-18T06:00:43.119Z,13.93
2018-12-18T06:03:12.554Z,11.83
2018-12-18T06:05:40.829Z,11.57
2018-12-18T06:08:09.135Z,12.80
2018-12-18T06:10:38.029Z,13.50
2018-12-18T06:13:06.461Z,12.17
2018-12-18T06:18:12.084Z,11.80
2018-12-18T06:20:40.374Z,10.77
2018-12-18T06:23:08.658Z,9.57
2018-12-18T06:25:37.784Z,9.70
2018-12-18T06:28:06.099Z,9.10
2018-12-18T06:30:34.406Z,8.73
2018-12-18T06:33:09.906Z,8.30
2018-12-18T06:35:38.387Z,7.40
2018-12-18T06:38:06.670Z,8.23
2018-12-18T06:40:35.176Z,7.23
2018-12-18T06:43:03.602Z,7.27
2018-12-18T06:45:32.002Z,8.10
2018-12-18T06:48:00.600Z,7.37
2018-12-18T06:50:30.376Z,7.70
2018-12-18T06:52:58.668Z,6.80
2018-12-18T06:55:27.337Z,7.13
2018-12-18T06:57:56.126Z,7.20
2018-12-18T07:00:25.715Z,7.27
2018-12-18T07:02:54.351Z,7.63
2018-12-18T07:05:22.650Z,6.93
2018-12-18T07:07:57.164Z,7.73
2018-12-18T07:10:21.500Z,7.80
2018-12-18T07:12:49.853Z,8.07
2018-12-18T07:15:18.668Z,8.17
2018-12-18T07:17:47.292Z,7.30
2018-12-18T07:20:15.567Z,8.17
2018-12-18T07:22:43.853Z,9.20
2018-12-18T07:25:12.344Z,9.87
2018-12-18T07:27:40.613Z,10.37
2018-12-18T07:30:09.117Z,12.33
2018-12-18T07:32:37.788Z,13.97
2018-12-18T07:35:06.228Z,13.03
2018-12-18T07:37:34.587Z,11.47
2018-12-18T07:40:03.275Z,10.13
2018-12-18T07:42:31.566Z,9.63
2018-12-18T07:44:59.848Z,11.73
2018-12-18T07:47:28.446Z,10.47
2018-12-18T07:49:56.802Z,9.93
2018-12-18T07:52:25.269Z,10.00
2018-12-18T07:54:53.895Z,10.17
2018-12-18T07:57:22.164Z,11.70
2018-12-18T07:59:50.447Z,10.67
2018-12-18T08:02:18.935Z,11.47
2018-12-18T08:04:47.241Z,11.40
2018-12-18T08:07:15.524Z,11.27
2018-12-18T08:09:44.582Z,13.30
2018-12-18T08:12:13.759Z,14.03
2018-12-18T08:14:42.015Z,13.70
2018-12-18T08:17:10.701Z,13.87
2018-12-18T08:19:39.003Z,13.27
2018-12-18T08:22:07.286Z,12.73
2018-12-18T08:24:35.928Z,11.93
2018-12-18T08:27:04.210Z,10.23
2018-12-18T08:29:32.494Z,11.20
2018-12-18T08:32:03.162Z,10.87
2018-12-18T08:34:31.487Z,9.73
2018-12-18T08:36:59.797Z,9.73
2018-12-18T08:39:28.394Z,11.37
2018-12-18T08:41:56.691Z,11.57
2018-12-18T08:44:25.082Z,10.83
2018-12-18T08:46:53.847Z,10.63
2018-12-18T08:49:22.126Z,9.53
2018-12-18T08:51:50.406Z,9.93
2018-12-18T08:54:18.864Z,9.43
2018-12-18T08:56:47.158Z,10.80
2018-12-18T08:59:15.506Z,10.27
2018-12-18T09:01:44.124Z,10.17
2018-12-18T09:04:12.455Z,9.87
2018-12-18T09:06:40.720Z,9.77
2018-12-18T09:09:09.753Z,9.83
2018-12-18T09:11:38.030Z,10.47
2018-12-18T09:14:06.304Z,10.57
2018-12-18T09:16:40.324Z,10.43
2018-12-18T09:19:08.587Z,10.57
2018-12-18T09:21:37.197Z,10.97
2018-12-18T09:24:06.022Z,10.10
2018-12-18T09:26:34.278Z,10.27
2018-12-18T09:29:03.721Z,9.63
2018-12-18T09:31:32.428Z,7.57
2018-12-18T09:34:01.156Z,6.90
2018-12-18T09:36:29.424Z,6.93
2018-12-18T09:39:03.462Z,6.67
2018-12-18T09:41:38.804Z,6.80
2018-12-18T09:44:10.616Z,7.47
2018-12-18T09:46:39.007Z,7.80
2018-12-18T09:49:07.639Z,7.07
2018-12-18T09:51:36.260Z,7.10
2018-12-18T09:54:04.584Z,7.73
2018-12-18T09:56:37.313Z,7.27
2018-12-18T09:59:05.586Z,7.57
2018-12-18T10:01:33.841Z,8.10
2018-12-18T10:04:02.952Z,7.60
2018-12-18T10:06:31.205Z,8.47
2018-12-18T10:08:59.603Z,7.90
2018-12-18T10:11:28.194Z,8.37
2018-12-18T10:13:56.539Z,8.17
2018-12-18T10:16:24.831Z,7.43
2018-12-18T10:18:53.445Z,7.57
2018-12-18T10:21:21.754Z,7.47
2018-12-18T10:23:50.023Z,8.20
2018-12-18T10:26:18.468Z,7.33
2018-12-18T10:28:46.762Z,7.37
2018-12-18T10:31:15.051Z,7.33
2018-12-18T10:33:43.705Z,7.60
2018-12-18T10:36:12.317Z,7.00
2018-12-18T10:38:40.578Z,6.70
2018-12-18T10:41:10.083Z,6.57
2018-12-18T10:43:38.423Z,6.53
2018-12-18T10:46:06.717Z,7.07
2018-12-18T10:48:35.174Z,6.37
2018-12-18T10:51:03.642Z,6.80
2018-12-18T10:53:32.040Z,6.50
2018-12-18T10:56:00.430Z,6.27
2018-12-18T10:58:28.890Z,6.37
2018-12-18T11:01:02.843Z,6.27
2018-12-18T11:03:31.145Z,6.10
2018-12-18T11:05:59.430Z,5.90
2018-12-18T11:08:27.922Z,5.60
2018-12-18T11:10:56.209Z,5.87
2018-12-18T11:13:24.515Z,6.00
2018-12-18T11:15:52.996Z,5.97
2018-12-18T11:18:21.350Z,6.60
2018-12-18T11:20:49.663Z,5.10
2018-12-18T11:23:19.766Z,5.73
2018-12-18T11:25:48.313Z,5.40
2018-12-18T11:28:16.621Z,5.63
2018-12-18T11:30:45.216Z,6.47
2018-12-18T11:33:13.651Z,6.23
2018-12-18T11:35:41.928Z,5.73
2018-12-18T11:38:10.458Z,6.07
2018-12-18T11:40:38.748Z,5.90
2018-12-18T11:43:07.065Z,5.33
2018-12-18T11:45:35.684Z,5.30
2018-12-18T11:48:04.073Z,5.50
2018-12-18T11:50:32.413Z,5.20
2018-12-18T11:53:01.337Z,5.30
2018-12-18T11:55:29.901Z,5.60
2018-12-18T11:57:58.632Z,5.30
2018-12-18T12:00:27.251Z,4.50
2018-12-18T12:02:55.543Z,4.17
2018-12-18T12:05:23.846Z,4.13
2018-12-18T12:07:52.461Z,3.83
2018-12-18T12:10:20.741Z,3.80
2018-12-18T12:12:49.027Z,3.60
2018-12-18T12:15:17.675Z,4.03
2018-12-18T12:17:46.036Z,3.40
2018-12-18T12:20:14.687Z,3.50
2018-12-18T12:22:43.719Z,2.70
2018-12-18T12:25:12.265Z,4.30
2018-12-18T12:27:46.629Z,3.73
2018-12-18T12:30:14.924Z,3.30
2018-12-18T12:32:43.573Z,2.97
2018-12-18T12:35:12.465Z,3.07
2018-12-18T12:37:41.070Z,3.30
2018-12-18T12:40:09.519Z,2.63
2018-12-18T12:42:38.130Z,3.03
2018-12-18T12:45:06.636Z,2.43
2018-12-18T12:47:34.897Z,2.73
2018-12-18T12:50:04.091Z,2.47
2018-12-18T12:52:32.837Z,2.73
2018-12-18T12:55:01.329Z,2.37
2018-12-18T12:57:29.827Z,2.63
2018-12-18T12:59:58.122Z,2.30
2018-12-18T13:02:26.404Z,2.93
2018-12-18T13:04:54.849Z,3.00
2018-12-18T13:07:23.163Z,2.50
2018-12-18T13:09:51.869Z,2.20
2018-12-18T13:12:20.299Z,2.40
2018-12-18T13:14:48.592Z,2.43
2018-12-18T13:17:16.886Z,2.67
2018-12-18T13:19:45.172Z,2.20
2018-12-18T13:22:13.566Z,2.60
2018-12-18T13:24:42.015Z,2.23
2018-12-18T13:27:10.782Z,2.20
2018-12-18T13:29:39.625Z,2.63
2018-12-18T13:32:07.886Z,2.93
2018-12-18T13:34:36.328Z,2.17
2018-12-18T13:37:04.652Z,1.97
2018-12-18T13:39:32.921Z,2.20
2018-12-18T13:42:01.292Z,1.93
2018-12-18T13:44:29.640Z,2.20
2018-12-18T13:46:57.908Z,1.60
2018-12-18T13:49:26.499Z,2.30
2018-12-18T13:51:55.669Z,2.00
2018-12-18T13:54:23.964Z,1.77
2018-12-18T13:56:52.580Z,2.00
2018-12-18T13:59:20.867Z,2.57
2018-12-18T14:01:49.277Z,1.80
2018-12-18T14:04:17.787Z,2.50
2018-12-18T14:06:49.698Z,2.40
2018-12-18T14:09:16.645Z,2.57
2018-12-18T14:11:45.309Z,2.13
2018-12-18T14:14:13.632Z,1.73
2018-12-18T14:16:41.917Z,1.93
2018-12-18T14:19:15.105Z,1.80
2018-12-18T14:21:43.383Z,1.80
2018-12-18T14:24:11.692Z,1.47
2018-12-18T14:26:40.468Z,1.67
2018-12-18T14:29:09.770Z,1.93
2018-12-18T14:31:38.139Z,1.80
2018-12-18T14:34:07.157Z,1.90
2018-12-18T14:36:35.457Z,2.00
2018-12-18T14:39:06.044Z,1.37
2018-12-18T14:41:34.627Z,1.63
2018-12-18T14:44:03.182Z,1.70
2018-12-18T14:46:31.474Z,1.70
2018-12-18T14:49:00.486Z,1.57
2018-12-18T14:51:28.759Z,1.67
2018-12-18T14:53:57.046Z,1.93
2018-12-18T14:56:25.557Z,1.77
2018-12-18T14:58:53.885Z,1.83
2018-12-18T15:01:22.206Z,2.10
2018-12-18T15:03:51.658Z,1.70
2018-12-18T15:06:19.942Z,1.67
2018-12-18T15:08:48.302Z,1.90
2018-12-18T15:11:16.819Z,1.77
2018-12-18T15:13:45.108Z,1.50
2018-12-18T15:16:13.407Z,1.60
2018-12-18T15:18:41.835Z,1.57
2018-12-18T15:21:11.137Z,2.40
2018-12-18T15:23:39.413Z,2.33
2018-12-18T15:26:08.125Z,2.37
2018-12-18T15:28:36.493Z,1.97
2018-12-18T15:31:04.815Z,2.13
2018-12-18T15:33:33.405Z,2.30
2018-12-18T15:36:01.891Z,2.03
2018-12-18T15:38:30.268Z,2.10
2018-12-18T15:40:59.000Z,2.07
2018-12-18T15:43:27.600Z,2.33
2018-12-18T15:45:55.874Z,2.50
2018-12-18T15:48:24.442Z,2.20
2018-12-18T15:50:52.744Z,1.80
2018-12-18T15:53:21.073Z,1.77
2018-12-18T15:55:49.675Z,1.90
2018-12-18T15:58:17.960Z,1.70
2018-12-18T16:00:46.239Z,1.60
2018-12-18T16:03:14.697Z,1.70
2018-12-18T16:05:43.098Z,2.00
2018-12-18T16:08:11.414Z,1.80
2018-12-18T16:10:40.350Z,1.90
2018-12-18T16:13:08.714Z,2.00
2018-12-18T16:15:36.992Z,1.97
2018-12-18T16:18:05.645Z,2.13
2018-12-18T16:20:33.910Z,2.50
2018-12-18T16:23:02.239Z,2.20
2018-12-18T16:25:30.930Z,2.30
2018-12-18T16:27:59.241Z,2.37
2018-12-18T16:30:27.832Z,2.10
2018-12-18T16:32:56.275Z,2.00
2018-12-18T16:35:24.661Z,2.30
2018-12-18T16:37:53.211Z,2.80
2018-12-18T16:40:22.183Z,2.17
2018-12-18T16:42:50.539Z,2.40
2018-12-18T16:45:18.979Z,2.37
2018-12-18T16:47:47.581Z,2.77
2018-12-18T16:50:15.881Z,2.33
2018-12-18T16:52:44.445Z,2.10
2018-12-18T16:55:13.631Z,1.97
2018-12-18T16:57:41.958Z,2.30
2018-12-18T17:00:13.706Z,2.07
2018-12-18T17:02:42.420Z,2.13
2018-12-18T17:05:10.833Z,2.10
2018-12-18T17:07:39.198Z,2.50
2018-12-18T17:10:07.704Z,2.07
2018-12-18T17:12:36.318Z,2.03
2018-12-18T17:15:04.923Z,1.90
2018-12-18T17:17:33.650Z,2.03
2018-12-18T17:20:03.474Z,2.50
2018-12-18T17:22:32.684Z,2.20
2018-12-18T17:25:01.327Z,2.20
2018-12-18T17:27:29.630Z,2.13
2018-12-18T17:29:57.952Z,2.00
2018-12-18T17:32:31.076Z,2.00
2018-12-18T17:35:00.096Z,2.20
2018-12-18T17:37:28.396Z,2.00
2018-12-18T17:39:57.335Z,2.07
2018-12-18T17:42:25.806Z,1.93
2018-12-18T17:44:54.191Z,1.90
2018-12-18T17:47:22.783Z,1.87
2018-12-18T17:49:51.078Z,2.03
2018-12-18T17:52:19.922Z,1.67
2018-12-18T18:26:41.330Z,2.20
2018-12-18T18:29:09.631Z,2.13
2018-12-18T18:31:38.209Z,2.50
2018-12-18T18:34:07.109Z,2.70
2018-12-18T18:36:42.061Z,2.33
2018-12-18T18:39:10.650Z,2.20
2018-12-18T18:41:39.439Z,2.17
2018-12-18T18:44:07.797Z,2.10
2018-12-18T18:46:36.504Z,2.00
2018-12-18T18:49:04.818Z,2.03
2018-12-18T18:51:34.342Z,2.23
2018-12-18T18:54:04.198Z,2.40
2018-12-18T18:56:32.843Z,2.70
2018-12-18T18:59:02.071Z,2.20
2018-12-18T19:01:30.468Z,2.17
2018-12-18T19:03:58.893Z,2.30
2018-12-18T19:06:27.281Z,2.97
2018-12-18T19:08:55.765Z,2.97
2018-12-18T19:11:24.063Z,2.50
2018-12-18T19:13:52.392Z,2.30
2018-12-18T19:16:20.852Z,2.70
2018-12-18T19:18:49.212Z,2.70
2018-12-18T19:21:17.502Z,2.63
2018-12-18T19:23:45.913Z,2.70
2018-12-18T19:26:14.254Z,2.23
2018-12-18T19:28:42.656Z,3.07
2018-12-18T19:31:11.093Z,2.83
2018-12-18T19:33:39.417Z,2.77
2018-12-18T19:36:07.713Z,2.50
2018-12-18T19:38:36.115Z,2.73
2018-12-18T19:41:04.402Z,2.97
2018-12-18T19:43:33.635Z,2.97
2018-12-18T19:46:02.262Z,3.00
2018-12-18T19:48:30.743Z,2.50
2018-12-18T19:50:59.042Z,2.70
2018-12-18T19:53:28.152Z,2.63
2018-12-18T19:55:56.492Z,2.73
2018-12-18T19:58:24.862Z,3.17
2018-12-18T20:00:53.583Z,2.77
2018-12-18T20:03:21.887Z,3.10
2018-12-18T20:05:50.195Z,2.77
2018-12-18T20:08:19.626Z,2.93
2018-12-18T20:10:47.908Z,3.00
2018-12-18T20:13:16.225Z,2.57
2018-12-18T20:15:45.294Z,3.07
2018-12-18T20:18:13.616Z,3.20
2018-12-18T20:20:41.912Z,3.00
2018-12-18T20:23:10.519Z,3.23
2018-12-18T20:25:38.832Z,2.90
2018-12-18T20:28:07.117Z,2.80
2018-12-18T20:31:04.839Z,3.13
2018-12-18T20:33:33.150Z,2.90
2018-12-18T20:36:01.498Z,2.90
2018-12-18T20:38:30.084Z,3.20
2018-12-18T20:40:58.419Z,2.53
2018-12-18T20:43:26.852Z,3.13
2018-12-18T20:45:55.319Z,2.60
2018-12-18T20:48:23.617Z,2.87
2018-12-18T20:50:51.912Z,2.90
2018-12-18T20:53:20.417Z,2.93
2018-12-18T20:55:48.681Z,2.97
2018-12-18T20:58:17.063Z,2.60
2018-12-18T21:00:46.465Z,2.80
2018-12-18T21:03:14.863Z,2.90
2018-12-18T21:05:43.237Z,2.73
2018-12-18T21:08:12.117Z,2.47
2018-12-18T21:10:40.467Z,3.37
2018-12-18T21:13:14.355Z,3.10
2018-12-18T21:15:42.674Z,3.03
2018-12-18T21:18:10.981Z,2.80
2018-12-18T21:20:39.433Z,2.50
2018-12-18T21:23:14.375Z,2.60
2018-12-18T21:25:43.033Z,2.63
2018-12-18T21:28:11.328Z,2.70
2018-12-18T21:30:39.643Z,2.53
2018-12-18T21:33:08.338Z,2.63
2018-12-18T21:35:36.626Z,2.70
2018-12-18T21:38:04.893Z,2.30
2018-12-18T21:40:33.787Z,2.67
2018-12-18T21:43:02.074Z,2.47
2018-12-18T21:45:30.373Z,2.40
2018-12-18T21:47:59.006Z,2.43
2018-12-18T21:50:27.342Z,2.43
2018-12-18T21:52:55.630Z,2.20
2018-12-18T21:55:24.254Z,2.20
2018-12-18T21:57:52.570Z,2.20
2018-12-18T22:00:22.626Z,2.50
2018-12-18T22:02:51.602Z,2.37
2018-12-18T22:05:19.937Z,2.27
2018-12-18T22:07:48.220Z,2.30
2018-12-18T22:10:16.778Z,2.10
2018-12-18T22:12:45.059Z,2.47
2018-12-18T22:15:13.373Z,2.23
2018-12-18T22:17:41.839Z,2.40
2018-12-18T22:20:10.168Z,2.30
2018-12-18T22:22:38.452Z,2.20
2018-12-18T22:25:07.042Z,2.40
2018-12-18T22:27:35.318Z,2.40
2018-12-18T22:30:06.106Z,2.10
2018-12-18T22:32:34.994Z,2.10
2018-12-18T22:35:03.794Z,2.37
2018-12-18T22:37:32.100Z,2.10
2018-12-18T22:40:00.795Z,2.33
2018-12-18T22:42:29.646Z,2.50
2018-12-18T22:44:57.971Z,2.40
2018-12-18T22:47:26.446Z,2.23
2018-12-18T22:49:54.790Z,2.30
2018-12-18T22:52:23.103Z,2.47
2018-12-18T22:54:51.742Z,2.20
2018-12-18T22:57:20.036Z,2.33
2018-12-18T22:59:48.316Z,2.53
2018-12-18T23:02:17.326Z,2.40
2018-12-18T23:04:46.251Z,2.33
2018-12-18T23:07:14.523Z,2.40
2018-12-18T23:09:43.242Z,2.30
2018-12-18T23:12:12.291Z,2.27
2018-12-18T23:14:40.614Z,2.50
2018-12-18T23:17:16.062Z,2.20
2018-12-18T23:19:44.319Z,2.40
2018-12-18T23:22:12.630Z,2.20
2018-12-18T23:24:41.298Z,2.30
2018-12-18T23:27:09.566Z,2.63
2018-12-18T23:29:37.842Z,2.03
2018-12-18T23:34:41.174Z,2.40
2018-12-18T23:37:09.461Z,2.57
2018-12-18T23:39:38.070Z,2.40
2018-12-18T23:42:06.364Z,2.43
2018-12-18T23:44:34.732Z,2.07
2018-12-18T23:47:03.503Z,2.37
2018-12-18T23:49:31.780Z,2.40
2018-12-18T23:52:00.054Z,2.07
2018-12-18T23:54:28.736Z,2.50
2018-12-18T23:56:57.010Z,2.47
2018-12-18T23:59:25.291Z,1.93
